Time;durP1;ratioP1;P1;durP2;ratioP2;P2;SDS_P1;SDS_P2;PMS_P1;PMS_P2;Temp;Humidity;BMP_temperature;BMP_pressure;BME280_temperature;BME280_humidity;BME280_pressure;Samples;Min_cycle;Max_cycle;Signal;HPM_P1;HPM_P2
2023/07/14 00:00:35;;;;;;;14.23;9.82;;;;;;;;;;5018340;28;20128;-79
2023/07/14 00:03:02;;;;;;;12.50;9.25;;;;;;;;;;5029453;28;20056;-78
2023/07/14 00:05:31;;;;;;;14.93;9.73;;;;;;;;;;5039135;28;20948;-78
2023/07/14 00:07:57;;;;;;;15.40;9.10;;;;;;;;;;5022842;28;20041;-79
2023/07/14 00:10:23;;;;;;;12.85;8.38;;;;;;;;;;5039975;28;20279;-80
2023/07/14 00:12:51;;;;;;;16.40;9.18;;;;;;;;;;5040062;28;20060;-79
2023/07/14 00:15:17;;;;;;;17.83;10.20;;;;;;;;;;5040926;28;20045;-80
2023/07/14 00:17:44;;;;;;;12.80;9.43;;;13.30;99.90;;;;;;5017966;28;20509;-80
2023/07/14 00:20:23;;;;;;;14.88;9.60;;;13.20;99.90;;;;;;5018525;28;20049;-80
2023/07/14 00:22:50;;;;;;;13.02;10.02;;;13.20;99.90;;;;;;5041110;28;20049;-81
2023/07/14 00:25:17;;;;;;;13.88;9.98;;;;;;;;;;5014855;28;20148;-80
2023/07/14 00:27:43;;;;;;;14.57;10.48;;;;;;;;;;5028531;28;20053;-80
2023/07/14 00:30:16;;;;;;;18.15;9.93;;;13.10;99.90;;;;;;5011529;28;20097;-80
2023/07/14 00:32:42;;;;;;;13.07;11.48;;;;;;;;;;5035662;28;20487;-79
2023/07/14 00:35:28;;;;;;;12.10;9.65;;;13.10;99.90;;;;;;5041276;28;20045;-80
2023/07/14 00:37:58;;;;;;;18.65;10.68;;;13.10;99.90;;;;;;5011931;28;20392;-80
2023/07/14 00:40:30;;;;;;;16.42;11.50;;;13.00;99.90;;;;;;5024863;28;20524;-80
2023/07/14 00:42:58;;;;;;;18.20;10.98;;;13.00;99.90;;;;;;5068052;28;20125;-80
2023/07/14 00:45:26;;;;;;;15.73;11.68;;;13.00;99.90;;;;;;5041778;28;20072;-81
2023/07/14 00:47:57;;;;;;;16.92;11.30;;;13.00;99.90;;;;;;5040740;28;20068;-78
2023/07/14 00:50:29;;;;;;;16.90;11.82;;;12.90;99.90;;;;;;5042530;28;20049;-78
2023/07/14 00:52:58;;;;;;;19.48;12.70;;;13.00;99.90;;;;;;5012780;28;20049;-79
2023/07/14 00:55:24;;;;;;;16.88;12.68;;;;;;;;;;5040831;28;20069;-78
2023/07/14 00:57:55;;;;;;;20.80;12.63;;;10.40;99.90;;;;;;5034300;28;20049;-78
2023/07/14 01:00:30;;;;;;;21.35;13.52;;;13.00;99.90;;;;;;5022839;28;20080;-77
2023/07/14 01:03:00;;;;;;;16.90;11.77;;;12.90;99.90;;;;;;5067820;28;20088;-80
2023/07/14 01:05:26;;;;;;;17.77;12.95;;;;;;;;;;5040490;28;20060;-78
2023/07/14 01:07:54;;;;;;;20.48;13.18;;;12.80;99.90;;;;;;5040858;28;20092;-79
2023/07/14 01:10:24;;;;;;;19.38;12.88;;;12.80;99.90;;;;;;5041905;28;20049;-79
2023/07/14 01:12:57;;;;;;;24.02;13.45;;;12.80;99.90;;;;;;5031093;28;20730;-77
2023/07/14 01:15:23;;;;;;;21.77;15.50;;;;;;;;;;5024091;28;20049;-80
2023/07/14 01:17:53;;;;;;;20.45;14.38;;;;;;;;;;5039102;28;20048;-79
2023/07/14 01:20:20;;;;;;;22.23;13.98;;;;;;;;;;5040381;28;20866;-78
2023/07/14 01:22:46;;;;;;;20.98;15.93;;;;;;;;;;5039844;28;20092;-78
2023/07/14 01:25:28;;;;;;;28.38;16.25;;;12.60;99.90;;;;;;5038457;28;20505;-78
2023/07/14 01:27:54;;;;;;;24.02;15.85;;;;;;;;;;5022565;28;20065;-78
2023/07/14 01:30:20;;;;;;;23.88;17.42;;;;;;;;;;5016575;28;20055;-79
2023/07/14 01:32:49;;;;;;;24.05;17.05;;;12.40;99.90;;;;;;5035746;28;20045;-80
2023/07/14 01:35:16;;;;;;;25.27;16.33;;;15.70;99.90;;;;;;5039149;28;20066;-77
2023/07/14 01:37:42;;;;;;;23.40;17.42;;;12.70;99.90;;;;;;5036079;28;20053;-79
2023/07/14 01:40:12;;;;;;;22.80;16.50;;;13.20;99.90;;;;;;5013192;28;20060;-78
2023/07/14 01:42:41;;;;;;;23.17;17.08;;;12.70;99.90;;;;;;5029143;28;20740;-79
2023/07/14 01:45:13;;;;;;;26.58;17.58;;;12.70;99.90;;;;;;5036743;28;20052;-79
2023/07/14 01:47:42;;;;;;;29.05;17.17;;;12.70;99.90;;;;;;5030907;28;20091;-77
2023/07/14 01:50:21;;;;;;;24.15;17.42;;;12.70;99.90;;;;;;5028060;28;20221;-80
2023/07/14 01:52:50;;;;;;;25.55;15.98;;;12.70;99.90;;;;;;5039044;28;20501;-79
2023/07/14 01:55:19;;;;;;;26.15;17.83;;;12.50;99.90;;;;;;5054275;28;20135;-79
2023/07/14 01:57:48;;;;;;;26.20;18.10;;;12.70;99.90;;;;;;5035776;28;20059;-78
2023/07/14 02:00:16;;;;;;;21.13;17.13;;;12.40;99.90;;;;;;5039019;28;20041;-79
2023/07/14 02:02:44;;;;;;;25.77;17.70;;;12.60;99.90;;;;;;5037359;28;20780;-78
2023/07/14 02:05:31;;;;;;;22.98;16.90;;;12.60;99.90;;;;;;5040559;28;20137;-78
2023/07/14 02:08:03;;;;;;;26.40;18.00;;;12.60;99.90;;;;;;5039576;28;20394;-79
2023/07/14 02:10:29;;;;;;;23.65;16.75;;;12.60;99.90;;;;;;5027389;28;20320;-78
2023/07/14 02:12:55;;;;;;;28.65;17.33;;;12.60;99.90;;;;;;5038428;28;20044;-77
2023/07/14 02:15:31;;;;;;;22.88;15.82;;;12.40;99.90;;;;;;5035623;28;20082;-80
2023/07/14 02:17:59;;;;;;;28.65;18.42;;;12.40;99.90;;;;;;5031316;28;20506;-80
2023/07/14 02:20:32;;;;;;;22.50;16.80;;;12.20;99.90;;;;;;5034971;28;20053;-78
2023/07/14 02:22:59;;;;;;;24.80;17.08;;;12.30;99.90;;;;;;5034357;28;20184;-78
2023/07/14 02:25:27;;;;;;;31.98;18.08;;;12.30;99.90;;;;;;5062629;28;20525;-79
2023/07/14 02:27:53;;;;;;;22.90;16.08;;;;;;;;;;5074396;28;20119;-76
2023/07/14 02:30:22;;;;;;;25.92;17.63;;;12.40;99.90;;;;;;5038373;28;20053;-76
2023/07/14 02:32:56;;;;;;;24.75;16.85;;;12.50;99.90;;;;;;5039696;28;20127;-82
2023/07/14 02:35:33;;;;;;;25.27;17.73;;;12.40;99.90;;;;;;5041335;28;20071;-78
2023/07/14 02:38:05;;;;;;;27.63;17.88;;;12.40;99.90;;;;;;5046815;28;20142;-77
2023/07/14 02:40:39;;;;;;;27.52;17.40;;;12.90;99.90;;;;;;5039356;28;20059;-79
2023/07/14 02:43:11;;;;;;;27.38;16.70;;;12.40;99.90;;;;;;5019129;28;20049;-73
2023/07/14 02:45:51;;;;;;;21.60;15.80;;;12.30;99.90;;;;;;5046562;28;21004;-77
2023/07/14 02:48:22;;;;;;;33.72;17.00;;;12.30;99.90;;;;;;5055786;28;20049;-80
2023/07/14 02:50:48;;;;;;;21.85;16.95;;;;;;;;;;5041649;28;20059;-75
2023/07/14 02:53:16;;;;;;;26.30;16.95;;;;;;;;;;5011178;28;20752;-77
2023/07/14 02:55:42;;;;;;;25.13;17.40;;;;;;;;;;5035572;28;20060;-78
2023/07/14 02:58:08;;;;;;;29.20;16.98;;;;;;;;;;5042215;28;20049;-74
2023/07/14 03:00:35;;;;;;;21.92;14.98;;;;;;;;;;5042298;28;20049;-79
2023/07/14 03:03:01;;;;;;;21.85;15.65;;;11.50;99.90;;;;;;5040448;28;20052;-79
2023/07/14 03:05:27;;;;;;;25.05;15.82;;;;;;;;;;5042205;28;20072;-80
2023/07/14 03:07:53;;;;;;;24.70;15.82;;;;;;;;;;5037727;28;20056;-77
2023/07/14 03:10:20;;;;;;;23.13;14.88;;;;;;;;;;5038729;28;20133;-77
2023/07/14 03:12:45;;;;;;;21.83;15.27;;;12.20;99.90;;;;;;5034745;28;20064;-80
2023/07/14 03:15:11;;;;;;;22.10;15.65;;;11.90;99.90;;;;;;5038706;28;20052;-77
2023/07/14 03:17:37;;;;;;;26.10;14.88;;;;;;;;;;5039021;28;20056;-78
2023/07/14 03:20:04;;;;;;;22.23;15.38;;;11.90;99.90;;;;;;5046624;28;20045;-77
2023/07/14 03:22:30;;;;;;;21.27;15.18;;;;;;;;;;5043556;28;20049;-77
2023/07/14 03:25:00;;;;;;;22.73;14.52;;;11.90;99.90;;;;;;5039897;28;20049;-75
2023/07/14 03:27:27;;;;;;;23.35;14.38;;;;;;;;;;5054569;28;20088;-78
2023/07/14 03:29:53;;;;;;;20.80;13.98;;;11.90;99.90;;;;;;5040589;28;20052;-78
2023/07/14 03:32:19;;;;;;;20.10;14.15;;;11.90;99.90;;;;;;5043503;28;20051;-80
2023/07/14 03:34:45;;;;;;;22.60;14.20;;;;;;;;;;5036985;28;20072;-78
2023/07/14 03:37:11;;;;;;;18.95;13.45;;;11.60;99.90;;;;;;5037774;28;20128;-78
2023/07/14 03:39:36;;;;;;;19.20;13.23;;;11.70;99.90;;;;;;5031683;28;20061;-78
2023/07/14 03:42:02;;;;;;;23.10;15.18;;;11.80;99.90;;;;;;5037643;28;20057;-78
2023/07/14 03:44:29;;;;;;;21.33;14.98;;;;;;;;;;5036278;28;20042;-78
2023/07/14 03:46:55;;;;;;;21.75;14.88;;;;;;;;;;5041931;28;20413;-78
2023/07/14 03:49:20;;;;;;;29.35;14.90;;;11.90;99.90;;;;;;5020773;28;20110;-78
2023/07/14 03:51:46;;;;;;;21.60;14.70;;;12.00;99.90;;;;;;5036493;28;20064;-78
2023/07/14 03:54:12;;;;;;;24.02;15.00;;;11.90;99.90;;;;;;5042266;28;20499;-77
2023/07/14 03:56:38;;;;;;;24.05;15.07;;;;;;;;;;5033885;28;20053;-78
2023/07/14 03:59:04;;;;;;;22.00;14.50;;;12.10;99.90;;;;;;5035788;28;20045;-79
2023/07/14 04:01:30;;;;;;;22.27;14.80;;;12.20;99.90;;;;;;5039607;28;20175;-77
2023/07/14 04:03:56;;;;;;;22.17;14.73;;;;;;;;;;5036622;28;20073;-80
2023/07/14 04:06:22;;;;;;;19.15;13.35;;;;;;;;;;5040109;28;20196;-78
2023/07/14 04:08:52;;;;;;;29.38;16.15;;;12.30;99.90;;;;;;5009893;28;20559;-78
2023/07/14 04:11:18;;;;;;;27.38;14.02;;;;;;;;;;5026573;28;20053;-78
2023/07/14 04:13:44;;;;;;;17.83;13.82;;;;;;;;;;5031609;28;20041;-78
2023/07/14 04:16:09;;;;;;;21.20;13.50;;;12.40;99.90;;;;;;5039514;28;20088;-80
2023/07/14 04:18:36;;;;;;;20.25;13.30;;;12.50;99.90;;;;;;5014068;28;20088;-78
2023/07/14 04:21:08;;;;;;;17.83;12.18;;;12.50;99.90;;;;;;5069343;28;20068;-78
2023/07/14 04:23:34;;;;;;;20.67;13.80;;;12.60;99.90;;;;;;5068018;28;20067;-77
2023/07/14 04:26:01;;;;;;;20.38;12.35;;;12.70;99.90;;;;;;5041560;28;20049;-78
2023/07/14 04:28:27;;;;;;;27.00;13.48;;;12.90;99.90;;;;;;5037015;28;20048;-81
2023/07/14 04:30:54;;;;;;;17.98;12.70;;;13.10;99.90;;;;;;5038711;28;20083;-79
2023/07/14 04:33:21;;;;;;;18.23;11.82;;;;;;;;;;5022403;28;20124;-77
2023/07/14 04:35:48;;;;;;;14.23;11.27;;;13.70;99.90;;;;;;5038762;28;20453;-76
2023/07/14 04:38:14;;;;;;;17.60;11.02;;;13.90;99.90;;;;;;5020483;28;20198;-79
2023/07/14 04:40:41;;;;;;;15.77;10.65;;;14.20;99.90;;;;;;5016731;28;20049;-79
2023/07/14 04:43:07;;;;;;;16.83;10.52;;;;;;;;;;5006050;28;20049;-78
2023/07/14 04:45:38;;;;;;;14.50;9.98;;;14.50;99.90;;;;;;5034245;28;20053;-78
2023/07/14 04:48:06;;;;;;;11.93;8.85;;;14.50;99.90;;;;;;5037398;28;20429;-75
2023/07/14 04:50:34;;;;;;;14.15;9.15;;;14.50;99.90;;;;;;5040728;28;20451;-77
2023/07/14 04:53:00;;;;;;;14.25;8.88;;;;;;;;;;5020632;28;20083;-75
2023/07/14 04:55:27;;;;;;;15.57;9.45;;;14.30;99.90;;;;;;5041281;28;20060;-78
2023/07/14 04:57:53;;;;;;;12.15;8.43;;;14.60;99.90;;;;;;5037581;28;20067;-78
2023/07/14 05:00:20;;;;;;;13.18;9.18;;;;;;;;;;5023667;28;20095;-78
2023/07/14 05:02:47;;;;;;;13.95;9.52;;;;;;;;;;5043046;28;20518;-80
2023/07/14 05:05:17;;;;;;;13.73;8.27;;;14.90;99.90;;;;;;5039764;28;20057;-80
2023/07/14 05:07:43;;;;;;;12.55;8.52;;;;;;;;;;5024383;28;20060;-79
2023/07/14 05:10:10;;;;;;;11.52;9.30;;;;;;;;;;5040879;28;20084;-79
2023/07/14 05:12:36;;;;;;;12.10;8.13;;;;;;;;;;5037159;28;20098;-81
2023/07/14 05:15:06;;;;;;;14.55;7.78;;;15.40;99.90;;;;;;5040779;28;20106;-80
2023/07/14 05:17:35;;;;;;;11.73;8.05;;;15.80;99.90;;;;;;5041006;28;20057;-78
2023/07/14 05:20:02;;;;;;;11.90;7.72;;;;;;;;;;5039231;28;20048;-79
2023/07/14 05:22:28;;;;;;;9.90;6.97;;;15.90;99.90;;;;;;5056598;28;20056;-79
2023/07/14 05:24:54;;;;;;;8.90;7.20;;;16.10;99.90;;;;;;5032392;28;20057;-79
2023/07/14 05:27:20;;;;;;;12.70;6.55;;;16.30;99.90;;;;;;5024420;28;20044;-77
2023/07/14 05:29:46;;;;;;;13.95;7.97;;;16.50;99.90;;;;;;5037541;28;20460;-81
2023/07/14 05:32:12;;;;;;;11.07;7.18;;;16.60;99.90;;;;;;5070820;28;20136;-78
2023/07/14 05:34:38;;;;;;;13.77;7.35;;;17.70;99.90;;;;;;5027697;28;20057;-79
2023/07/14 05:37:04;;;;;;;10.45;7.72;;;16.90;99.90;;;;;;5028839;28;20089;-76
2023/07/14 05:39:30;;;;;;;14.13;7.60;;;17.40;99.90;;;;;;5032537;28;20092;-78
2023/07/14 05:41:58;;;;;;;11.52;7.30;;;17.50;99.90;;;;;;5015681;28;20064;-82
2023/07/14 05:44:24;;;;;;;12.13;7.60;;;18.20;99.90;;;;;;5030819;28;20052;-79
2023/07/14 05:46:50;;;;;;;11.68;6.93;;;19.50;99.90;;;;;;5036801;28;20537;-78
2023/07/14 05:49:16;;;;;;;14.68;7.22;;;20.50;99.90;;;;;;5054486;28;20057;-80
2023/07/14 05:51:42;;;;;;;9.27;7.20;;;21.60;99.90;;;;;;5021356;28;20053;-80
2023/07/14 05:54:08;;;;;;;13.23;6.53;;;;;;;;;;5053849;28;20053;-79
2023/07/14 05:56:35;;;;;;;11.30;7.10;;;;;;;;;;5038084;28;20063;-80
2023/07/14 05:59:01;;;;;;;9.23;6.20;;;;;;;;;;5025529;28;20573;-84
2023/07/14 06:01:27;;;;;;;13.70;8.05;;;;;;;;;;5024236;28;20067;-77
2023/07/14 06:03:53;;;;;;;10.70;6.35;;;19.90;99.90;;;;;;5011848;28;20081;-83
2023/07/14 06:06:19;;;;;;;9.02;7.13;;;19.60;99.90;;;;;;5022524;28;20087;-80
2023/07/14 06:08:45;;;;;;;11.40;8.00;;;19.50;99.90;;;;;;5033371;28;20060;-81
2023/07/14 06:11:11;;;;;;;10.82;7.18;;;;;;;;;;5072159;28;20053;-82
2023/07/14 06:13:37;;;;;;;8.57;6.38;;;19.00;99.90;;;;;;5034208;28;20712;-79
2023/07/14 06:16:03;;;;;;;10.95;7.43;;;19.00;99.90;;;;;;5012731;28;20064;-79
2023/07/14 06:18:28;;;;;;;11.65;7.22;;;18.90;99.90;;;;;;5037816;28;20041;-83
2023/07/14 06:20:57;;;;;;;11.82;7.20;;;18.70;99.90;;;;;;5040146;28;20053;-81
2023/07/14 06:23:23;;;;;;;15.45;7.53;;;18.70;99.90;;;;;;5037520;28;20395;-81
2023/07/14 06:25:48;;;;;;;13.23;7.45;;;18.70;99.90;;;;;;5022079;28;20048;-79
2023/07/14 06:28:14;;;;;;;12.20;7.50;;;18.60;99.90;;;;;;5014867;28;20053;-83
2023/07/14 06:30:40;;;;;;;14.75;8.65;;;;;;;;;;5037590;28;20049;-81
2023/07/14 06:33:06;;;;;;;10.93;7.60;;;18.30;99.90;;;;;;5040953;28;20084;-79
2023/07/14 06:35:32;;;;;;;13.00;7.95;;;18.20;99.90;;;;;;5063720;28;20098;-77
2023/07/14 06:37:58;;;;;;;11.50;7.68;;;18.50;99.90;;;;;;5028746;28;20059;-79
2023/07/14 06:40:24;;;;;;;13.45;8.40;;;18.70;99.90;;;;;;5018185;28;20482;-83
2023/07/14 06:42:50;;;;;;;10.52;7.22;;;20.40;99.90;;;;;;5071791;28;20061;-82
2023/07/14 06:45:16;;;;;;;10.38;6.75;;;20.50;99.90;;;;;;5041888;28;20113;-76
2023/07/14 06:47:42;;;;;;;9.90;6.68;;;;;;;;;;5076533;28;20212;-79
2023/07/14 06:50:08;;;;;;;11.20;6.38;;;23.10;98.70;;;;;;5043778;28;20061;-80
2023/07/14 06:52:38;;;;;;;9.27;5.68;;;24.20;95.80;;;;;;5044122;28;20056;-80
2023/07/14 06:55:09;;;;;;;8.90;5.97;;;24.30;96.00;;;;;;5041320;28;20483;-81
2023/07/14 06:57:35;;;;;;;10.07;5.97;;;25.90;93.70;;;;;;5025922;28;20112;-80
2023/07/14 07:00:01;;;;;;;7.60;5.68;;;27.20;90.80;;;;;;5025703;28;20160;-80
2023/07/14 07:02:27;;;;;;;8.82;5.63;;;28.30;86.20;;;;;;5025414;28;20040;-78
2023/07/14 07:04:52;;;;;;;10.13;5.55;;;29.30;81.90;;;;;;5044907;28;20483;-80
2023/07/14 07:07:18;;;;;;;9.25;4.97;;;30.10;77.60;;;;;;5020401;28;20068;-79
2023/07/14 07:09:44;;;;;;;8.63;5.18;;;30.80;74.80;;;;;;5043564;28;20083;-80
2023/07/14 07:12:13;;;;;;;7.50;4.25;;;31.30;71.30;;;;;;5079538;28;20071;-79
2023/07/14 07:14:39;;;;;;;8.63;4.05;;;32.00;69.60;;;;;;5074265;28;20060;-80
2023/07/14 07:17:05;;;;;;;7.22;3.88;;;32.50;68.10;;;;;;5042645;28;20040;-76
2023/07/14 07:19:32;;;;;;;7.70;3.53;;;32.90;65.60;;;;;;5022741;28;20473;-77
2023/07/14 07:21:58;;;;;;;7.45;3.55;;;33.30;63.70;;;;;;5050611;28;20051;-79
2023/07/14 07:24:24;;;;;;;5.20;2.95;;;33.50;61.80;;;;;;5037690;28;20057;-76
2023/07/14 07:26:50;;;;;;;7.75;3.08;;;33.80;66.50;;;;;;5036471;28;20049;-80
2023/07/14 07:29:16;;;;;;;7.90;3.30;;;33.60;60.10;;;;;;5037511;28;20060;-80
2023/07/14 07:31:42;;;;;;;7.10;3.55;;;33.60;59.40;;;;;;5036796;28;20653;-78
2023/07/14 07:34:08;;;;;;;6.68;3.00;;;33.80;64.00;;;;;;5071993;28;20042;-81
2023/07/14 07:36:35;;;;;;;5.50;2.35;;;34.00;58.00;;;;;;5041126;28;20044;-79
2023/07/14 07:39:01;;;;;;;6.43;2.38;;;34.20;57.30;;;;;;5039607;28;20048;-79
2023/07/14 07:41:27;;;;;;;8.02;3.13;;;34.60;57.20;;;;;;5040166;28;20047;-82
2023/07/14 07:43:53;;;;;;;4.35;1.70;;;35.10;56.60;;;;;;5040729;28;20037;-78
2023/07/14 07:46:21;;;;;;;4.70;1.92;;;;;;;;;;5039753;28;20053;-79
2023/07/14 07:48:47;;;;;;;4.15;1.48;;;35.90;58.20;;;;;;5036126;28;20442;-79
2023/07/14 07:51:14;;;;;;;3.85;1.38;;;35.90;53.90;;;;;;5038786;28;20041;-82
2023/07/14 07:53:40;;;;;;;5.55;1.27;;;36.00;53.10;;;;;;5023363;28;20047;-81
2023/07/14 07:56:06;;;;;;;4.38;1.10;;;36.10;52.50;;;;;;5023800;28;20045;-75
2023/07/14 07:58:32;;;;;;;3.83;1.27;;;36.10;52.10;;;;;;5039980;28;20053;-81
2023/07/14 08:01:03;;;;;;;3.35;1.25;;;36.00;51.40;;;;;;5038756;28;20068;-76
2023/07/14 08:03:30;;;;;;;4.75;1.10;;;36.10;51.60;;;;;;5039655;28;20047;-80
2023/07/14 08:06:00;;;;;;;4.20;1.10;;;36.20;50.70;;;;;;5038976;28;20107;-83
2023/07/14 08:08:27;;;;;;;3.60;1.53;;;36.20;50.60;;;;;;5047994;28;20767;-80
2023/07/14 08:10:53;;;;;;;4.78;1.45;;;36.20;50.30;;;;;;5023424;28;20600;-83
2023/07/14 08:13:19;;;;;;;3.25;1.15;;;35.80;49.50;;;;;;5021477;28;20072;-80
2023/07/14 08:15:45;;;;;;;3.75;1.33;;;35.60;49.50;;;;;;5035951;28;20380;-77
2023/07/14 08:18:11;;;;;;;4.63;1.10;;;35.70;49.30;;;;;;5037610;28;20052;-83
2023/07/14 08:20:37;;;;;;;4.50;1.58;;;35.70;49.00;;;;;;5038381;28;20572;-76
2023/07/14 08:23:04;;;;;;;6.50;1.33;;;35.90;48.50;;;;;;5037808;28;20582;-77
2023/07/14 08:25:31;;;;;;;5.15;1.70;;;35.80;48.90;;;;;;5036782;28;20044;-79
2023/07/14 08:27:56;;;;;;;4.55;1.40;;;34.60;48.80;;;;;;5069381;28;20168;-82
2023/07/14 08:30:23;;;;;;;3.40;1.20;;;34.30;49.60;;;;;;5037256;28;20124;-77
2023/07/14 08:32:49;;;;;;;3.90;0.85;;;34.60;49.80;;;;;;5032395;28;20104;-77
2023/07/14 08:35:19;;;;;;;6.57;1.80;;;34.80;49.70;;;;;;5034044;28;20053;-85
2023/07/14 08:37:45;;;;;;;3.58;1.20;;;35.10;49.50;;;;;;5033720;28;20047;-79
2023/07/14 08:40:36;;;;;;;3.83;1.08;;;35.20;49.20;;;;;;5037822;28;20719;-79
2023/07/14 08:43:21;;;;;;;4.43;1.25;;;35.30;48.90;;;;;;5018120;28;20465;-78
2023/07/14 08:46:03;;;;;;;2.35;1.27;;;35.30;48.60;;;;;;5065878;28;20065;-76
2023/07/14 08:48:38;;;;;;;5.93;2.58;;;35.00;48.70;;;;;;5040788;28;20048;-84
2023/07/14 08:51:17;;;;;;;5.20;1.33;;;34.70;47.90;;;;;;5041680;28;20052;-83
2023/07/14 08:53:55;;;;;;;6.90;2.40;;;35.90;54.00;;;;;;5062360;28;20053;-78
2023/07/14 08:56:22;;;;;;;4.07;2.10;;;35.70;49.10;;;;;;5034932;28;20494;-78
2023/07/14 08:58:50;;;;;;;3.38;1.20;;;35.40;48.30;;;;;;5041154;28;20118;-83
2023/07/14 09:01:30;;;;;;;4.25;1.52;;;34.40;48.70;;;;;;5067654;28;20061;-81
2023/07/14 09:04:03;;;;;;;3.10;1.50;;;34.30;48.70;;;;;;5067774;28;20049;-78
2023/07/14 09:06:36;;;;;;;4.57;1.48;;;34.30;49.20;;;;;;5038660;28;20332;-79
2023/07/14 09:09:10;;;;;;;5.38;1.63;;;34.10;48.50;;;;;;5013882;28;20053;-83
2023/07/14 09:11:46;;;;;;;2.97;1.30;;;33.10;49.20;;;;;;5026078;28;20253;-78
2023/07/14 09:14:31;;;;;;;2.70;1.00;;;33.10;49.80;;;;;;5041042;28;20406;-81
2023/07/14 09:17:15;;;;;;;1.75;0.70;;;33.10;50.80;;;;;;5041893;28;20061;-81
2023/07/14 09:20:01;;;;;;;3.30;1.15;;;33.10;51.40;;;;;;5033139;28;20049;-81
2023/07/14 09:22:46;;;;;;;2.72;1.17;;;32.60;51.10;;;;;;5022854;28;20052;-80
2023/07/14 09:25:32;;;;;;;4.25;0.90;;;32.80;50.80;;;;;;5034354;28;20044;-77
2023/07/14 09:28:00;;;;;;;3.20;1.45;;;33.00;51.10;;;;;;5037236;28;20065;-78
2023/07/14 09:30:28;;;;;;;3.53;1.00;;;32.70;50.40;;;;;;5041761;28;20057;-79
2023/07/14 09:33:00;;;;;;;2.25;0.63;;;32.30;51.00;;;;;;5036664;28;20106;-80
2023/07/14 09:35:28;;;;;;;4.30;0.88;;;32.50;50.70;;;;;;5038593;28;20524;-75
2023/07/14 09:38:07;;;;;;;5.75;1.45;;;32.80;49.70;;;;;;5037234;28;20125;-79
2023/07/14 09:40:38;;;;;;;2.40;0.85;;;32.90;49.90;;;;;;5039654;28;20087;-78
2023/07/14 09:43:06;;;;;;;4.63;1.05;;;32.70;50.90;;;;;;5040214;28;20760;-77
2023/07/14 09:45:35;;;;;;;2.78;0.85;;;32.50;51.30;;;;;;5029226;28;20049;-79
2023/07/14 09:48:26;;;;;;;4.70;0.95;;;32.00;51.50;;;;;;5040017;28;20072;-80
2023/07/14 09:50:55;;;;;;;3.45;0.55;;;31.20;52.10;;;;;;5072103;28;20712;-81
2023/07/14 09:53:21;;;;;;;4.20;1.05;;;31.10;52.50;;;;;;5037726;28;20498;-83
2023/07/14 09:55:52;;;;;;;3.97;1.27;;;30.60;52.90;;;;;;5023386;28;20053;-81
2023/07/14 09:58:21;;;;;;;;;;;30.80;53.10;;;;;;5037017;28;20063;-80
2023/07/14 10:00:50;;;;;;;2.95;0.80;;;31.20;52.60;;;;;;5014312;28;20016;-76
2023/07/14 10:03:17;;;;;;;3.10;0.85;;;31.60;51.90;;;;;;5012783;28;20044;-80
2023/07/14 10:05:47;;;;;;;5.43;1.33;;;31.90;51.00;;;;;;5033605;28;20406;-79
2023/07/14 10:08:26;;;;;;;3.35;0.80;;;32.10;51.40;;;;;;5013638;28;20053;-74
2023/07/14 10:10:55;;;;;;;6.07;1.35;;;32.30;52.00;;;;;;5033539;28;20107;-74
2023/07/14 10:13:26;;;;;;;4.88;0.82;;;32.10;51.50;;;;;;5034011;28;20059;-79
2023/07/14 10:16:14;;;;;;;4.20;0.70;;;32.00;52.70;;;;;;5038452;28;20056;-81
2023/07/14 10:18:49;;;;;;;2.88;1.10;;;32.30;53.80;;;;;;5048192;28;20064;-77
2023/07/14 10:21:22;;;;;;;2.15;0.85;;;31.80;51.30;;;;;;5022732;28;20048;-79
2023/07/14 10:24:05;;;;;;;3.45;1.00;;;29.70;52.10;;;;;;5034079;28;20049;-79
2023/07/14 10:26:34;;;;;;;4.43;1.10;;;29.70;52.40;;;;;;5054732;28;20049;-80
2023/07/14 10:29:03;;;;;;;4.10;1.20;;;29.10;54.10;;;;;;5034207;28;20052;-78
2023/07/14 10:31:37;;;;;;;4.55;1.30;;;29.10;55.20;;;;;;5029590;28;20714;-79
2023/07/14 10:34:24;;;;;;;3.40;1.25;;;29.30;55.70;;;;;;5037614;28;20391;-78
2023/07/14 10:36:56;;;;;;;6.53;1.48;;;29.80;55.70;;;;;;5028150;28;20052;-77
2023/07/14 10:39:41;;;;;;;5.63;0.82;;;30.40;54.20;;;;;;5022846;28;20060;-79
2023/07/14 10:42:16;;;;;;;3.38;0.90;;;31.00;55.00;;;;;;5034696;28;20057;-78
2023/07/14 10:44:45;;;;;;;5.90;1.15;;;31.40;53.90;;;;;;5005741;28;20053;-80
2023/07/14 10:47:17;;;;;;;3.08;1.40;;;31.90;53.70;;;;;;5048219;28;20049;-77
2023/07/14 10:49:53;;;;;;;5.32;1.40;;;32.00;52.80;;;;;;5040536;28;20056;-79
2023/07/14 10:52:25;;;;;;;7.20;1.88;;;32.00;52.10;;;;;;5018919;28;20569;-81
2023/07/14 10:55:12;;;;;;;2.97;1.40;;;31.30;51.60;;;;;;5060130;28;20088;-83
2023/07/14 10:58:07;;;;;;;4.07;1.20;;;30.50;52.40;;;;;;5038427;28;20079;-80
2023/07/14 11:00:53;;;;;;;3.90;1.23;;;29.80;54.00;;;;;;5009675;28;20136;-76
2023/07/14 11:03:19;;;;;;;4.38;1.63;;;29.00;55.10;;;;;;5023160;28;20049;-78
2023/07/14 11:06:00;;;;;;;3.10;1.00;;;28.50;56.40;;;;;;5039054;28;20064;-79
2023/07/14 11:08:29;;;;;;;2.10;1.00;;;28.10;57.10;;;;;;5031115;28;20771;-77
2023/07/14 11:11:01;;;;;;;3.05;1.40;;;27.60;57.70;;;;;;5037459;28;20049;-76
2023/07/14 11:13:39;;;;;;;3.80;1.85;;;27.20;58.10;;;;;;5040724;28;20051;-80
2023/07/14 11:16:22;;;;;;;3.97;1.80;;;26.50;62.30;;;;;;5023467;28;20049;-78
2023/07/14 11:18:48;;;;;;;5.47;2.00;;;;;;;;;;5040946;28;20152;-80
2023/07/14 11:21:22;;;;;;;3.75;1.83;;;25.70;59.40;;;;;;5043122;28;20056;-78
2023/07/14 11:24:15;;;;;;;4.20;1.83;;;25.70;60.10;;;;;;5040679;28;20764;-79
2023/07/14 11:27:00;;;;;;;3.28;1.25;;;25.40;61.50;;;;;;5048622;28;20048;-78
2023/07/14 11:29:30;;;;;;;4.50;1.90;;;25.30;62.60;;;;;;5072571;28;20053;-77
2023/07/14 11:31:59;;;;;;;4.10;1.88;;;25.30;62.40;;;;;;5036235;28;20045;-77
2023/07/14 11:34:42;;;;;;;3.85;1.73;;;25.40;62.30;;;;;;5038647;28;20060;-79
2023/07/14 11:37:45;;;;;;;3.22;1.38;;;25.50;63.20;;;;;;5017671;28;20052;-79
2023/07/14 11:40:22;;;;;;;4.63;1.35;;;25.60;62.60;;;;;;5041233;28;20086;-76
2023/07/14 11:42:55;;;;;;;4.50;1.67;;;25.60;62.90;;;;;;5041751;28;20042;-78
2023/07/14 11:45:24;;;;;;;4.10;1.10;;;25.70;62.70;;;;;;5013952;28;20413;-79
2023/07/14 11:47:51;;;;;;;3.05;1.52;;;25.80;62.70;;;;;;5040467;28;20064;-78
2023/07/14 11:50:26;;;;;;;3.67;1.45;;;25.70;62.70;;;;;;5039708;28;20053;-80
2023/07/14 11:52:58;;;;;;;3.80;1.63;;;25.60;62.60;;;;;;5033053;28;20099;-75
2023/07/14 11:55:27;;;;;;;4.35;1.73;;;25.60;62.70;;;;;;5040252;28;20065;-75
2023/07/14 11:58:28;;;;;;;2.90;1.27;;;25.70;62.20;;;;;;5040187;28;20048;-80
2023/07/14 12:01:13;;;;;;;3.03;1.38;;;25.80;61.30;;;;;;5038269;28;20411;-80
2023/07/14 12:03:43;;;;;;;3.22;1.23;;;25.80;61.10;;;;;;5034675;28;20087;-74
2023/07/14 12:06:18;;;;;;;5.15;1.45;;;25.60;61.10;;;;;;5040299;28;20494;-77
2023/07/14 12:08:55;;;;;;;3.53;1.25;;;25.40;61.90;;;;;;5041886;28;20505;-75
2023/07/14 12:11:29;;;;;;;4.95;1.70;;;26.80;63.60;;;;;;5034745;28;20124;-78
2023/07/14 12:13:57;;;;;;;2.47;1.13;;;25.50;63.20;;;;;;5042275;28;20186;-81
2023/07/14 12:16:27;;;;;;;3.35;1.10;;;25.50;61.70;;;;;;5039680;28;20207;-76
2023/07/14 12:19:04;;;;;;;2.50;1.15;;;25.60;62.60;;;;;;5041126;28;20783;-74
2023/07/14 12:22:07;;;;;;;2.42;0.90;;;25.60;61.60;;;;;;5073409;28;20076;-79
2023/07/14 12:25:12;;;;;;;2.30;0.82;;;25.80;62.10;;;;;;5057488;28;20156;-81
2023/07/14 12:27:41;;;;;;;2.60;0.85;;;25.80;63.00;;;;;;5031783;28;20113;-80
2023/07/14 12:30:24;;;;;;;3.00;1.20;;;25.40;61.10;;;;;;5017981;28;20529;-78
2023/07/14 12:33:03;;;;;;;3.13;0.90;;;25.50;62.10;;;;;;5034534;28;20144;-77
2023/07/14 12:35:32;;;;;;;2.30;0.88;;;25.30;63.00;;;;;;5067140;28;20766;-76
2023/07/14 12:38:15;;;;;;;3.90;1.40;;;25.10;63.50;;;;;;5071164;28;20128;-78
2023/07/14 12:40:42;;;;;;;3.75;1.25;;;24.80;64.50;;;;;;5022321;28;20044;-78
2023/07/14 12:43:25;;;;;;;3.88;1.00;;;24.70;64.90;;;;;;5032761;28;20502;-77
2023/07/14 12:45:51;;;;;;;3.25;1.00;;;24.60;65.30;;;;;;5029921;28;20722;-78
2023/07/14 12:48:17;;;;;;;5.15;1.30;;;24.60;65.20;;;;;;5037704;28;20049;-77
2023/07/14 12:50:44;;;;;;;2.80;1.20;;;24.70;69.70;;;;;;5039453;28;20048;-79
2023/07/14 12:53:16;;;;;;;3.22;1.17;;;24.60;65.80;;;;;;5038767;28;20063;-80
2023/07/14 12:55:43;;;;;;;1.98;0.85;;;24.90;64.80;;;;;;5021277;28;20045;-76
2023/07/14 12:58:19;;;;;;;3.22;1.15;;;25.10;65.50;;;;;;5070820;28;20041;-78
2023/07/14 13:00:44;;;;;;;4.05;1.17;;;25.20;65.80;;;;;;5039962;28;20084;-76
2023/07/14 13:03:13;;;;;;;2.78;1.30;;;25.20;65.60;;;;;;5040068;28;20116;-76
2023/07/14 13:05:41;;;;;;;4.30;1.58;;;25.10;64.80;;;;;;5029737;28;20092;-79
2023/07/14 13:08:17;;;;;;;1.58;0.70;;;25.10;65.60;;;;;;5006340;28;20495;-79
2023/07/14 13:10:43;;;;;;;2.92;0.82;;;25.10;65.40;;;;;;5033049;28;20080;-80
2023/07/14 13:13:16;;;;;;;3.17;1.15;;;25.20;65.80;;;;;;5033798;28;20052;-78